Terminal Aerodrome Forecast
Issued by NWS Memphis, TN

Home | Current Version | Previous Version | Text Only | Print | Product List | Glossary On
Versions: 1 2 3 4 5 6 7 8 9 10 11 12 13 14 15 16 17
000
FTUS44 KMEG 272340
TAFMKL
TAF
KMKL 272340Z 2800/2824 16007KT P6SM VCSH SCT060 OVC100
     FM280200 17005KT 6SM -SHRA VCTS BKN040CB OVC080
      TEMPO 2803/2805 5SM -TSRA
     FM280600 17006KT P6SM VCSH SCT040 OVC060
     FM281600 17008KT P6SM VCTS SCT050CB OVC100
     FM282200 19006KT P6SM BKN050=

USA.gov is the U.S. government's official web portal to all federal, state and local government web resources and services.